sensor_id;sensor_type;location;lat;lon;timestamp;P1;durP1;ratioP1;P2;durP2;ratioP2
29362;SDS011;16349;53.672;10.014;2022-12-18T00:02:19;17.97;;;9.80;;
29362;SDS011;16349;53.672;10.014;2022-12-18T00:04:47;15.83;;;9.87;;
29362;SDS011;16349;53.672;10.014;2022-12-18T00:07:14;13.53;;;8.60;;
29362;SDS011;16349;53.672;10.014;2022-12-18T00:09:41;21.23;;;9.97;;
29362;SDS011;16349;53.672;10.014;2022-12-18T00:12:08;15.70;;;9.53;;
29362;SDS011;16349;53.672;10.014;2022-12-18T00:14:35;13.53;;;9.03;;
29362;SDS011;16349;53.672;10.014;2022-12-18T00:17:02;15.77;;;8.43;;
29362;SDS011;16349;53.672;10.014;2022-12-18T00:19:30;17.93;;;9.03;;
29362;SDS011;16349;53.672;10.014;2022-12-18T00:21:57;14.37;;;9.53;;
29362;SDS011;16349;53.672;10.014;2022-12-18T00:24:24;16.27;;;9.40;;
29362;SDS011;16349;53.672;10.014;2022-12-18T00:26:51;14.53;;;8.87;;
29362;SDS011;16349;53.672;10.014;2022-12-18T00:29:19;16.23;;;9.40;;
29362;SDS011;16349;53.672;10.014;2022-12-18T00:31:45;14.83;;;8.70;;
29362;SDS011;16349;53.672;10.014;2022-12-18T00:34:12;15.73;;;9.10;;
29362;SDS011;16349;53.672;10.014;2022-12-18T00:36:41;17.37;;;9.43;;
29362;SDS011;16349;53.672;10.014;2022-12-18T00:39:09;15.53;;;8.67;;
29362;SDS011;16349;53.672;10.014;2022-12-18T00:41:36;16.07;;;9.67;;
29362;SDS011;16349;53.672;10.014;2022-12-18T00:44:21;15.87;;;8.60;;
29362;SDS011;16349;53.672;10.014;2022-12-18T00:46:49;17.50;;;8.70;;
29362;SDS011;16349;53.672;10.014;2022-12-18T00:49:17;13.03;;;9.33;;
29362;SDS011;16349;53.672;10.014;2022-12-18T00:51:46;13.90;;;10.00;;
29362;SDS011;16349;53.672;10.014;2022-12-18T00:54:13;13.37;;;9.33;;
29362;SDS011;16349;53.672;10.014;2022-12-18T00:56:41;19.03;;;10.53;;
29362;SDS011;16349;53.672;10.014;2022-12-18T00:59:08;14.17;;;9.27;;
29362;SDS011;16349;53.672;10.014;2022-12-18T01:01:37;17.17;;;9.90;;
29362;SDS011;16349;53.672;10.014;2022-12-18T01:04:04;14.37;;;9.20;;
29362;SDS011;16349;53.672;10.014;2022-12-18T01:06:32;12.90;;;9.23;;
29362;SDS011;16349;53.672;10.014;2022-12-18T01:09:00;13.40;;;8.80;;
29362;SDS011;16349;53.672;10.014;2022-12-18T01:11:27;14.30;;;8.53;;
29362;SDS011;16349;53.672;10.014;2022-12-18T01:13:54;14.17;;;9.53;;
29362;SDS011;16349;53.672;10.014;2022-12-18T01:16:21;14.37;;;9.20;;
29362;SDS011;16349;53.672;10.014;2022-12-18T01:18:51;15.33;;;8.83;;
29362;SDS011;16349;53.672;10.014;2022-12-18T01:21:19;17.17;;;9.40;;
29362;SDS011;16349;53.672;10.014;2022-12-18T01:23:50;19.80;;;10.00;;
29362;SDS011;16349;53.672;10.014;2022-12-18T01:26:19;13.50;;;8.33;;
29362;SDS011;16349;53.672;10.014;2022-12-18T01:28:46;11.57;;;8.47;;
29362;SDS011;16349;53.672;10.014;2022-12-18T01:31:14;15.40;;;8.73;;
29362;SDS011;16349;53.672;10.014;2022-12-18T01:33:43;17.23;;;9.57;;
29362;SDS011;16349;53.672;10.014;2022-12-18T01:36:18;12.20;;;8.30;;
29362;SDS011;16349;53.672;10.014;2022-12-18T01:38:47;16.23;;;9.83;;
29362;SDS011;16349;53.672;10.014;2022-12-18T01:41:15;15.17;;;8.67;;
29362;SDS011;16349;53.672;10.014;2022-12-18T01:43:46;11.77;;;8.17;;
29362;SDS011;16349;53.672;10.014;2022-12-18T01:46:15;17.30;;;9.07;;
29362;SDS011;16349;53.672;10.014;2022-12-18T01:48:43;14.73;;;8.90;;
29362;SDS011;16349;53.672;10.014;2022-12-18T01:51:13;13.47;;;8.93;;
29362;SDS011;16349;53.672;10.014;2022-12-18T01:53:41;13.10;;;8.37;;
29362;SDS011;16349;53.672;10.014;2022-12-18T01:56:11;13.10;;;8.07;;
29362;SDS011;16349;53.672;10.014;2022-12-18T01:58:43;13.53;;;8.47;;
29362;SDS011;16349;53.672;10.014;2022-12-18T02:01:25;12.27;;;7.80;;
29362;SDS011;16349;53.672;10.014;2022-12-18T02:03:53;14.33;;;9.20;;
29362;SDS011;16349;53.672;10.014;2022-12-18T02:06:21;12.37;;;8.33;;
29362;SDS011;16349;53.672;10.014;2022-12-18T02:08:58;14.97;;;8.03;;
29362;SDS011;16349;53.672;10.014;2022-12-18T02:11:35;13.67;;;8.40;;
29362;SDS011;16349;53.672;10.014;2022-12-18T02:14:11;17.80;;;8.47;;
29362;SDS011;16349;53.672;10.014;2022-12-18T02:16:47;17.33;;;8.83;;
29362;SDS011;16349;53.672;10.014;2022-12-18T02:19:27;11.80;;;8.00;;
29362;SDS011;16349;53.672;10.014;2022-12-18T02:22:07;11.27;;;7.07;;
29362;SDS011;16349;53.672;10.014;2022-12-18T02:24:54;12.63;;;7.70;;
29362;SDS011;16349;53.672;10.014;2022-12-18T02:27:30;10.73;;;7.37;;
29362;SDS011;16349;53.672;10.014;2022-12-18T02:29:58;12.97;;;7.27;;
29362;SDS011;16349;53.672;10.014;2022-12-18T02:32:28;14.67;;;8.00;;
29362;SDS011;16349;53.672;10.014;2022-12-18T02:34:57;12.17;;;7.07;;
29362;SDS011;16349;53.672;10.014;2022-12-18T02:37:28;12.63;;;7.17;;
29362;SDS011;16349;53.672;10.014;2022-12-18T02:39:59;12.13;;;7.63;;
29362;SDS011;16349;53.672;10.014;2022-12-18T02:42:31;13.60;;;8.10;;
29362;SDS011;16349;53.672;10.014;2022-12-18T02:44:59;12.00;;;8.00;;
29362;SDS011;16349;53.672;10.014;2022-12-18T02:47:29;16.80;;;8.10;;
29362;SDS011;16349;53.672;10.014;2022-12-18T02:50:00;14.33;;;7.23;;
29362;SDS011;16349;53.672;10.014;2022-12-18T02:52:35;11.53;;;7.07;;
29362;SDS011;16349;53.672;10.014;2022-12-18T02:55:14;15.40;;;8.00;;
29362;SDS011;16349;53.672;10.014;2022-12-18T02:57:56;11.03;;;7.10;;
29362;SDS011;16349;53.672;10.014;2022-12-18T03:00:36;11.03;;;7.43;;
29362;SDS011;16349;53.672;10.014;2022-12-18T03:03:09;14.67;;;7.70;;
29362;SDS011;16349;53.672;10.014;2022-12-18T03:05:43;13.57;;;7.63;;
29362;SDS011;16349;53.672;10.014;2022-12-18T03:08:17;10.67;;;6.97;;
29362;SDS011;16349;53.672;10.014;2022-12-18T03:10:50;17.33;;;7.80;;
29362;SDS011;16349;53.672;10.014;2022-12-18T03:13:25;11.83;;;7.00;;
29362;SDS011;16349;53.672;10.014;2022-12-18T03:15:57;12.20;;;7.67;;
29362;SDS011;16349;53.672;10.014;2022-12-18T03:18:27;11.37;;;6.53;;
29362;SDS011;16349;53.672;10.014;2022-12-18T03:20:57;12.57;;;7.40;;
29362;SDS011;16349;53.672;10.014;2022-12-18T03:23:27;9.83;;;7.00;;
29362;SDS011;16349;53.672;10.014;2022-12-18T03:25:59;12.10;;;7.60;;
29362;SDS011;16349;53.672;10.014;2022-12-18T03:28:30;12.57;;;6.90;;
29362;SDS011;16349;53.672;10.014;2022-12-18T03:31:03;10.07;;;6.90;;
29362;SDS011;16349;53.672;10.014;2022-12-18T03:33:32;11.90;;;7.87;;
29362;SDS011;16349;53.672;10.014;2022-12-18T03:36:04;12.07;;;6.67;;
29362;SDS011;16349;53.672;10.014;2022-12-18T03:38:32;12.40;;;8.17;;
29362;SDS011;16349;53.672;10.014;2022-12-18T03:41:00;13.70;;;7.57;;
29362;SDS011;16349;53.672;10.014;2022-12-18T03:43:45;10.33;;;7.30;;
29362;SDS011;16349;53.672;10.014;2022-12-18T03:46:20;12.17;;;7.20;;
29362;SDS011;16349;53.672;10.014;2022-12-18T03:48:55;10.50;;;6.77;;
29362;SDS011;16349;53.672;10.014;2022-12-18T03:51:29;9.63;;;6.70;;
29362;SDS011;16349;53.672;10.014;2022-12-18T03:54:04;10.67;;;6.97;;
29362;SDS011;16349;53.672;10.014;2022-12-18T03:56:38;10.57;;;7.10;;
29362;SDS011;16349;53.672;10.014;2022-12-18T03:59:11;9.33;;;6.17;;
29362;SDS011;16349;53.672;10.014;2022-12-18T04:02:01;11.93;;;6.83;;
29362;SDS011;16349;53.672;10.014;2022-12-18T04:04:31;8.53;;;6.23;;
29362;SDS011;16349;53.672;10.014;2022-12-18T04:07:01;13.33;;;6.80;;
29362;SDS011;16349;53.672;10.014;2022-12-18T04:09:33;8.57;;;5.80;;
29362;SDS011;16349;53.672;10.014;2022-12-18T04:12:01;13.37;;;7.27;;
29362;SDS011;16349;53.672;10.014;2022-12-18T04:14:30;11.73;;;7.17;;
29362;SDS011;16349;53.672;10.014;2022-12-18T04:17:06;11.80;;;6.40;;
29362;SDS011;16349;53.672;10.014;2022-12-18T04:19:33;13.00;;;6.73;;
29362;SDS011;16349;53.672;10.014;2022-12-18T04:22:01;12.33;;;6.50;;
29362;SDS011;16349;53.672;10.014;2022-12-18T04:24:34;12.93;;;6.27;;
29362;SDS011;16349;53.672;10.014;2022-12-18T04:27:08;9.77;;;6.23;;
29362;SDS011;16349;53.672;10.014;2022-12-18T04:29:43;9.23;;;6.20;;
29362;SDS011;16349;53.672;10.014;2022-12-18T04:32:09;11.50;;;7.03;;
29362;SDS011;16349;53.672;10.014;2022-12-18T04:34:37;11.47;;;6.37;;
29362;SDS011;16349;53.672;10.014;2022-12-18T04:37:04;13.07;;;6.50;;
29362;SDS011;16349;53.672;10.014;2022-12-18T04:39:31;9.90;;;5.97;;
29362;SDS011;16349;53.672;10.014;2022-12-18T04:42:03;8.97;;;6.57;;
29362;SDS011;16349;53.672;10.014;2022-12-18T04:44:31;10.97;;;6.47;;
29362;SDS011;16349;53.672;10.014;2022-12-18T04:46:59;9.73;;;5.97;;
29362;SDS011;16349;53.672;10.014;2022-12-18T04:49:26;11.17;;;6.17;;
29362;SDS011;16349;53.672;10.014;2022-12-18T04:51:52;10.97;;;6.17;;
29362;SDS011;16349;53.672;10.014;2022-12-18T04:54:20;9.10;;;6.60;;
29362;SDS011;16349;53.672;10.014;2022-12-18T04:56:46;14.30;;;6.93;;
29362;SDS011;16349;53.672;10.014;2022-12-18T04:59:14;9.43;;;6.30;;
29362;SDS011;16349;53.672;10.014;2022-12-18T05:01:41;10.30;;;7.00;;
29362;SDS011;16349;53.672;10.014;2022-12-18T05:04:10;10.03;;;6.60;;
29362;SDS011;16349;53.672;10.014;2022-12-18T05:06:37;10.27;;;6.80;;
29362;SDS011;16349;53.672;10.014;2022-12-18T05:09:04;10.53;;;6.30;;
29362;SDS011;16349;53.672;10.014;2022-12-18T05:11:31;11.03;;;7.13;;
29362;SDS011;16349;53.672;10.014;2022-12-18T05:13:57;14.93;;;7.00;;
29362;SDS011;16349;53.672;10.014;2022-12-18T05:16:24;12.43;;;6.27;;
29362;SDS011;16349;53.672;10.014;2022-12-18T05:18:51;11.83;;;7.57;;
29362;SDS011;16349;53.672;10.014;2022-12-18T05:21:19;10.37;;;6.00;;
29362;SDS011;16349;53.672;10.014;2022-12-18T05:23:46;9.57;;;6.57;;
29362;SDS011;16349;53.672;10.014;2022-12-18T05:26:15;9.27;;;6.50;;
29362;SDS011;16349;53.672;10.014;2022-12-18T05:28:43;10.27;;;6.73;;
29362;SDS011;16349;53.672;10.014;2022-12-18T05:31:10;9.80;;;6.13;;
29362;SDS011;16349;53.672;10.014;2022-12-18T05:33:37;10.73;;;6.37;;
29362;SDS011;16349;53.672;10.014;2022-12-18T05:36:05;8.90;;;6.07;;
29362;SDS011;16349;53.672;10.014;2022-12-18T05:38:35;10.37;;;6.60;;
29362;SDS011;16349;53.672;10.014;2022-12-18T05:41:03;10.03;;;6.30;;
29362;SDS011;16349;53.672;10.014;2022-12-18T05:43:33;13.37;;;6.73;;
29362;SDS011;16349;53.672;10.014;2022-12-18T05:46:03;11.53;;;6.80;;
29362;SDS011;16349;53.672;10.014;2022-12-18T05:48:30;8.23;;;6.10;;
29362;SDS011;16349;53.672;10.014;2022-12-18T05:51:02;9.23;;;6.60;;
29362;SDS011;16349;53.672;10.014;2022-12-18T05:53:31;11.53;;;7.00;;
29362;SDS011;16349;53.672;10.014;2022-12-18T05:56:01;10.30;;;6.70;;
29362;SDS011;16349;53.672;10.014;2022-12-18T05:58:29;8.70;;;5.97;;
29362;SDS011;16349;53.672;10.014;2022-12-18T06:00:57;9.27;;;6.03;;
29362;SDS011;16349;53.672;10.014;2022-12-18T06:03:31;10.43;;;6.50;;
29362;SDS011;16349;53.672;10.014;2022-12-18T06:05:58;11.03;;;6.63;;
29362;SDS011;16349;53.672;10.014;2022-12-18T06:08:25;10.83;;;6.37;;
29362;SDS011;16349;53.672;10.014;2022-12-18T06:10:52;11.23;;;7.17;;
29362;SDS011;16349;53.672;10.014;2022-12-18T06:13:21;9.57;;;6.47;;
29362;SDS011;16349;53.672;10.014;2022-12-18T06:15:48;9.00;;;6.93;;
29362;SDS011;16349;53.672;10.014;2022-12-18T06:18:14;11.83;;;6.83;;
29362;SDS011;16349;53.672;10.014;2022-12-18T06:20:42;11.93;;;6.57;;
29362;SDS011;16349;53.672;10.014;2022-12-18T06:23:08;9.73;;;6.70;;
29362;SDS011;16349;53.672;10.014;2022-12-18T06:25:36;11.20;;;6.87;;
29362;SDS011;16349;53.672;10.014;2022-12-18T06:28:03;13.57;;;6.97;;
29362;SDS011;16349;53.672;10.014;2022-12-18T06:30:32;9.77;;;6.33;;
29362;SDS011;16349;53.672;10.014;2022-12-18T06:32:59;10.20;;;6.67;;
29362;SDS011;16349;53.672;10.014;2022-12-18T06:35:26;9.87;;;6.60;;
29362;SDS011;16349;53.672;10.014;2022-12-18T06:37:53;11.63;;;6.43;;
29362;SDS011;16349;53.672;10.014;2022-12-18T06:40:20;10.13;;;6.57;;
29362;SDS011;16349;53.672;10.014;2022-12-18T06:42:47;14.00;;;6.90;;
29362;SDS011;16349;53.672;10.014;2022-12-18T06:45:16;9.00;;;6.93;;
29362;SDS011;16349;53.672;10.014;2022-12-18T06:47:44;12.70;;;7.10;;
29362;SDS011;16349;53.672;10.014;2022-12-18T06:50:11;11.33;;;7.27;;
29362;SDS011;16349;53.672;10.014;2022-12-18T06:52:38;10.90;;;6.70;;
29362;SDS011;16349;53.672;10.014;2022-12-18T06:55:08;12.00;;;7.13;;
29362;SDS011;16349;53.672;10.014;2022-12-18T06:57:36;9.57;;;6.97;;
29362;SDS011;16349;53.672;10.014;2022-12-18T07:00:04;10.13;;;6.93;;
29362;SDS011;16349;53.672;10.014;2022-12-18T07:02:32;9.23;;;6.57;;
29362;SDS011;16349;53.672;10.014;2022-12-18T07:05:01;12.07;;;7.77;;
29362;SDS011;16349;53.672;10.014;2022-12-18T07:07:28;9.90;;;7.03;;
29362;SDS011;16349;53.672;10.014;2022-12-18T07:09:54;12.83;;;7.30;;
29362;SDS011;16349;53.672;10.014;2022-12-18T07:12:21;9.17;;;7.13;;
29362;SDS011;16349;53.672;10.014;2022-12-18T07:14:48;10.23;;;6.70;;
29362;SDS011;16349;53.672;10.014;2022-12-18T07:17:15;15.07;;;7.63;;
29362;SDS011;16349;53.672;10.014;2022-12-18T07:19:42;10.30;;;7.67;;
29362;SDS011;16349;53.672;10.014;2022-12-18T07:22:10;12.80;;;7.53;;
29362;SDS011;16349;53.672;10.014;2022-12-18T07:24:37;11.93;;;7.50;;
29362;SDS011;16349;53.672;10.014;2022-12-18T07:27:04;10.20;;;7.47;;
29362;SDS011;16349;53.672;10.014;2022-12-18T07:29:31;10.73;;;6.90;;
29362;SDS011;16349;53.672;10.014;2022-12-18T07:31:58;11.00;;;7.67;;
29362;SDS011;16349;53.672;10.014;2022-12-18T07:34:25;10.10;;;7.17;;
29362;SDS011;16349;53.672;10.014;2022-12-18T07:36:52;11.30;;;7.43;;
29362;SDS011;16349;53.672;10.014;2022-12-18T07:39:20;13.63;;;7.90;;
29362;SDS011;16349;53.672;10.014;2022-12-18T07:41:47;12.43;;;8.03;;
29362;SDS011;16349;53.672;10.014;2022-12-18T07:44:34;14.73;;;7.53;;
29362;SDS011;16349;53.672;10.014;2022-12-18T07:47:01;12.20;;;7.67;;
29362;SDS011;16349;53.672;10.014;2022-12-18T07:49:27;15.20;;;8.90;;
29362;SDS011;16349;53.672;10.014;2022-12-18T07:51:54;16.93;;;9.37;;
29362;SDS011;16349;53.672;10.014;2022-12-18T07:54:23;12.73;;;7.67;;
29362;SDS011;16349;53.672;10.014;2022-12-18T07:56:50;11.13;;;7.90;;
29362;SDS011;16349;53.672;10.014;2022-12-18T07:59:17;12.63;;;7.73;;
29362;SDS011;16349;53.672;10.014;2022-12-18T08:01:45;10.03;;;6.93;;
29362;SDS011;16349;53.672;10.014;2022-12-18T08:04:11;9.93;;;6.97;;
29362;SDS011;16349;53.672;10.014;2022-12-18T08:06:38;12.80;;;7.57;;
29362;SDS011;16349;53.672;10.014;2022-12-18T08:09:05;13.60;;;7.47;;
29362;SDS011;16349;53.672;10.014;2022-12-18T08:11:35;11.20;;;6.93;;
29362;SDS011;16349;53.672;10.014;2022-12-18T08:14:02;10.10;;;7.30;;
29362;SDS011;16349;53.672;10.014;2022-12-18T08:16:29;11.77;;;7.33;;
29362;SDS011;16349;53.672;10.014;2022-12-18T08:18:56;13.03;;;7.13;;
29362;SDS011;16349;53.672;10.014;2022-12-18T08:21:24;11.40;;;7.20;;
29362;SDS011;16349;53.672;10.014;2022-12-18T08:23:52;11.53;;;7.13;;
29362;SDS011;16349;53.672;10.014;2022-12-18T08:26:20;15.47;;;8.47;;
29362;SDS011;16349;53.672;10.014;2022-12-18T08:28:49;11.47;;;8.50;;
29362;SDS011;16349;53.672;10.014;2022-12-18T08:31:17;10.93;;;7.27;;
29362;SDS011;16349;53.672;10.014;2022-12-18T08:33:45;12.53;;;7.30;;
29362;SDS011;16349;53.672;10.014;2022-12-18T08:36:14;18.23;;;8.93;;
29362;SDS011;16349;53.672;10.014;2022-12-18T08:38:42;10.13;;;7.30;;
29362;SDS011;16349;53.672;10.014;2022-12-18T08:41:09;10.63;;;7.53;;
29362;SDS011;16349;53.672;10.014;2022-12-18T08:43:38;11.50;;;7.80;;
29362;SDS011;16349;53.672;10.014;2022-12-18T08:46:25;14.10;;;8.27;;
29362;SDS011;16349;53.672;10.014;2022-12-18T08:48:54;12.77;;;7.97;;
29362;SDS011;16349;53.672;10.014;2022-12-18T08:51:21;10.90;;;7.70;;
29362;SDS011;16349;53.672;10.014;2022-12-18T08:53:48;11.50;;;6.50;;
29362;SDS011;16349;53.672;10.014;2022-12-18T08:56:14;13.33;;;8.17;;
29362;SDS011;16349;53.672;10.014;2022-12-18T08:58:42;19.03;;;7.93;;
29362;SDS011;16349;53.672;10.014;2022-12-18T09:01:09;14.43;;;7.03;;
29362;SDS011;16349;53.672;10.014;2022-12-18T09:03:39;12.07;;;8.10;;
29362;SDS011;16349;53.672;10.014;2022-12-18T09:06:06;12.90;;;7.53;;
29362;SDS011;16349;53.672;10.014;2022-12-18T09:08:35;16.27;;;7.90;;
29362;SDS011;16349;53.672;10.014;2022-12-18T09:11:02;11.20;;;7.50;;
29362;SDS011;16349;53.672;10.014;2022-12-18T09:13:29;11.30;;;7.50;;
29362;SDS011;16349;53.672;10.014;2022-12-18T09:15:56;9.77;;;7.60;;
29362;SDS011;16349;53.672;10.014;2022-12-18T09:18:23;12.20;;;7.93;;
29362;SDS011;16349;53.672;10.014;2022-12-18T09:20:51;11.40;;;7.67;;
29362;SDS011;16349;53.672;10.014;2022-12-18T09:23:18;15.40;;;8.07;;
29362;SDS011;16349;53.672;10.014;2022-12-18T09:25:45;11.20;;;7.13;;
29362;SDS011;16349;53.672;10.014;2022-12-18T09:28:16;10.93;;;6.87;;
29362;SDS011;16349;53.672;10.014;2022-12-18T09:30:45;10.80;;;7.87;;
29362;SDS011;16349;53.672;10.014;2022-12-18T09:33:13;12.60;;;7.73;;
29362;SDS011;16349;53.672;10.014;2022-12-18T09:35:41;11.50;;;7.20;;
29362;SDS011;16349;53.672;10.014;2022-12-18T09:38:11;12.30;;;7.20;;
29362;SDS011;16349;53.672;10.014;2022-12-18T09:40:42;9.50;;;6.90;;
29362;SDS011;16349;53.672;10.014;2022-12-18T09:43:16;13.50;;;7.93;;
29362;SDS011;16349;53.672;10.014;2022-12-18T09:45:46;17.53;;;9.53;;
29362;SDS011;16349;53.672;10.014;2022-12-18T09:48:18;15.57;;;8.77;;
29362;SDS011;16349;53.672;10.014;2022-12-18T09:50:50;9.47;;;6.43;;
29362;SDS011;16349;53.672;10.014;2022-12-18T09:53:19;12.53;;;7.23;;
29362;SDS011;16349;53.672;10.014;2022-12-18T09:55:51;9.63;;;6.67;;
29362;SDS011;16349;53.672;10.014;2022-12-18T09:58:20;10.03;;;6.70;;
29362;SDS011;16349;53.672;10.014;2022-12-18T10:00:55;14.90;;;7.77;;
29362;SDS011;16349;53.672;10.014;2022-12-18T10:03:22;13.37;;;7.20;;
29362;SDS011;16349;53.672;10.014;2022-12-18T10:05:52;11.40;;;7.60;;
29362;SDS011;16349;53.672;10.014;2022-12-18T10:08:30;12.23;;;7.43;;
29362;SDS011;16349;53.672;10.014;2022-12-18T10:11:03;14.13;;;7.73;;
29362;SDS011;16349;53.672;10.014;2022-12-18T10:13:58;11.20;;;7.63;;
29362;SDS011;16349;53.672;10.014;2022-12-18T10:16:32;12.30;;;8.80;;
29362;SDS011;16349;53.672;10.014;2022-12-18T10:19:08;11.30;;;6.53;;
29362;SDS011;16349;53.672;10.014;2022-12-18T10:21:45;9.07;;;6.67;;
29362;SDS011;16349;53.672;10.014;2022-12-18T10:24:20;12.60;;;7.50;;
29362;SDS011;16349;53.672;10.014;2022-12-18T10:26:53;12.50;;;7.67;;
29362;SDS011;16349;53.672;10.014;2022-12-18T10:29:25;12.47;;;7.67;;
29362;SDS011;16349;53.672;10.014;2022-12-18T10:31:52;11.60;;;7.17;;
29362;SDS011;16349;53.672;10.014;2022-12-18T10:34:19;11.57;;;7.30;;
29362;SDS011;16349;53.672;10.014;2022-12-18T10:36:47;11.57;;;7.57;;
29362;SDS011;16349;53.672;10.014;2022-12-18T10:39:15;11.07;;;6.93;;
29362;SDS011;16349;53.672;10.014;2022-12-18T10:41:45;10.00;;;6.90;;
29362;SDS011;16349;53.672;10.014;2022-12-18T10:44:19;13.70;;;6.97;;
29362;SDS011;16349;53.672;10.014;2022-12-18T10:46:48;11.63;;;7.17;;
29362;SDS011;16349;53.672;10.014;2022-12-18T10:49:21;11.27;;;7.67;;
29362;SDS011;16349;53.672;10.014;2022-12-18T10:52:03;11.70;;;8.00;;
29362;SDS011;16349;53.672;10.014;2022-12-18T10:54:32;11.13;;;8.23;;
29362;SDS011;16349;53.672;10.014;2022-12-18T10:57:15;13.67;;;8.40;;
29362;SDS011;16349;53.672;10.014;2022-12-18T10:59:49;10.93;;;7.17;;
29362;SDS011;16349;53.672;10.014;2022-12-18T11:02:24;10.93;;;6.83;;
29362;SDS011;16349;53.672;10.014;2022-12-18T11:04:53;12.87;;;8.13;;
29362;SDS011;16349;53.672;10.014;2022-12-18T11:07:20;15.93;;;7.87;;
29362;SDS011;16349;53.672;10.014;2022-12-18T11:09:58;10.93;;;7.40;;
29362;SDS011;16349;53.672;10.014;2022-12-18T11:12:30;11.50;;;8.40;;
29362;SDS011;16349;53.672;10.014;2022-12-18T11:14:57;13.73;;;7.80;;
29362;SDS011;16349;53.672;10.014;2022-12-18T11:17:25;11.77;;;7.97;;
29362;SDS011;16349;53.672;10.014;2022-12-18T11:19:55;12.27;;;8.07;;
29362;SDS011;16349;53.672;10.014;2022-12-18T11:22:24;9.67;;;6.67;;
29362;SDS011;16349;53.672;10.014;2022-12-18T11:24:53;10.80;;;7.03;;
29362;SDS011;16349;53.672;10.014;2022-12-18T11:27:24;10.67;;;6.47;;
29362;SDS011;16349;53.672;10.014;2022-12-18T11:29:53;10.60;;;7.30;;
29362;SDS011;16349;53.672;10.014;2022-12-18T11:32:35;16.60;;;7.27;;
29362;SDS011;16349;53.672;10.014;2022-12-18T11:35:13;9.87;;;7.10;;
29362;SDS011;16349;53.672;10.014;2022-12-18T11:37:46;10.50;;;6.90;;
29362;SDS011;16349;53.672;10.014;2022-12-18T11:40:16;8.63;;;6.70;;
29362;SDS011;16349;53.672;10.014;2022-12-18T11:42:48;12.20;;;7.00;;
29362;SDS011;16349;53.672;10.014;2022-12-18T11:45:25;11.43;;;6.83;;
29362;SDS011;16349;53.672;10.014;2022-12-18T11:47:56;14.00;;;7.27;;
29362;SDS011;16349;53.672;10.014;2022-12-18T11:50:28;13.97;;;7.63;;
29362;SDS011;16349;53.672;10.014;2022-12-18T11:53:00;11.20;;;6.90;;
29362;SDS011;16349;53.672;10.014;2022-12-18T11:55:29;11.30;;;6.87;;
29362;SDS011;16349;53.672;10.014;2022-12-18T11:58:03;8.17;;;6.43;;
29362;SDS011;16349;53.672;10.014;2022-12-18T12:00:40;11.70;;;7.50;;
29362;SDS011;16349;53.672;10.014;2022-12-18T12:03:20;13.23;;;6.90;;
29362;SDS011;16349;53.672;10.014;2022-12-18T12:06:03;11.43;;;7.77;;
29362;SDS011;16349;53.672;10.014;2022-12-18T12:08:43;12.00;;;6.53;;
29362;SDS011;16349;53.672;10.014;2022-12-18T12:11:27;14.17;;;8.03;;
29362;SDS011;16349;53.672;10.014;2022-12-18T12:14:04;9.33;;;7.07;;
29362;SDS011;16349;53.672;10.014;2022-12-18T12:16:48;10.20;;;8.23;;
29362;SDS011;16349;53.672;10.014;2022-12-18T12:19:26;12.03;;;7.90;;
29362;SDS011;16349;53.672;10.014;2022-12-18T12:22:03;11.63;;;7.77;;
29362;SDS011;16349;53.672;10.014;2022-12-18T12:24:39;10.50;;;7.33;;
29362;SDS011;16349;53.672;10.014;2022-12-18T12:27:17;11.83;;;7.23;;
29362;SDS011;16349;53.672;10.014;2022-12-18T12:29:55;11.47;;;7.30;;
29362;SDS011;16349;53.672;10.014;2022-12-18T12:32:35;13.43;;;6.63;;
29362;SDS011;16349;53.672;10.014;2022-12-18T12:35:14;10.10;;;5.93;;
29362;SDS011;16349;53.672;10.014;2022-12-18T12:37:54;16.50;;;8.33;;
29362;SDS011;16349;53.672;10.014;2022-12-18T12:40:31;10.60;;;7.27;;
29362;SDS011;16349;53.672;10.014;2022-12-18T12:43:03;12.50;;;7.17;;
29362;SDS011;16349;53.672;10.014;2022-12-18T12:45:44;8.27;;;6.30;;
29362;SDS011;16349;53.672;10.014;2022-12-18T12:48:18;10.67;;;6.83;;
29362;SDS011;16349;53.672;10.014;2022-12-18T12:50:53;12.80;;;7.10;;
29362;SDS011;16349;53.672;10.014;2022-12-18T12:53:23;8.63;;;6.27;;
29362;SDS011;16349;53.672;10.014;2022-12-18T12:55:53;11.30;;;6.93;;
29362;SDS011;16349;53.672;10.014;2022-12-18T12:58:23;11.70;;;7.10;;
29362;SDS011;16349;53.672;10.014;2022-12-18T13:00:59;14.23;;;7.27;;
29362;SDS011;16349;53.672;10.014;2022-12-18T13:03:37;11.23;;;6.83;;
29362;SDS011;16349;53.672;10.014;2022-12-18T13:06:14;13.20;;;7.73;;
29362;SDS011;16349;53.672;10.014;2022-12-18T13:08:54;11.97;;;7.50;;
29362;SDS011;16349;53.672;10.014;2022-12-18T13:11:34;9.90;;;7.47;;
29362;SDS011;16349;53.672;10.014;2022-12-18T13:14:21;11.57;;;7.10;;
29362;SDS011;16349;53.672;10.014;2022-12-18T13:19:43;14.57;;;7.17;;
29362;SDS011;16349;53.672;10.014;2022-12-18T13:22:20;11.43;;;7.40;;
29362;SDS011;16349;53.672;10.014;2022-12-18T13:24:49;13.40;;;7.50;;
29362;SDS011;16349;53.672;10.014;2022-12-18T13:36:30;10.80;;;6.67;;
29362;SDS011;16349;53.672;10.014;2022-12-18T13:39:08;14.90;;;7.17;;
29362;SDS011;16349;53.672;10.014;2022-12-18T13:42:31;14.27;;;8.00;;
29362;SDS011;16349;53.672;10.014;2022-12-18T13:45:37;16.53;;;7.70;;
29362;SDS011;16349;53.672;10.014;2022-12-18T13:48:13;14.47;;;8.00;;
29362;SDS011;16349;53.672;10.014;2022-12-18T13:50:49;14.33;;;8.20;;
29362;SDS011;16349;53.672;10.014;2022-12-18T13:53:23;18.53;;;8.90;;
29362;SDS011;16349;53.672;10.014;2022-12-18T13:55:53;14.10;;;7.83;;
29362;SDS011;16349;53.672;10.014;2022-12-18T13:58:42;15.47;;;8.83;;
29362;SDS011;16349;53.672;10.014;2022-12-18T14:01:15;15.13;;;8.20;;
29362;SDS011;16349;53.672;10.014;2022-12-18T14:03:48;15.10;;;8.73;;
29362;SDS011;16349;53.672;10.014;2022-12-18T14:06:35;15.00;;;7.80;;
29362;SDS011;16349;53.672;10.014;2022-12-18T14:09:03;15.90;;;8.87;;
29362;SDS011;16349;53.672;10.014;2022-12-18T14:11:30;14.57;;;8.63;;
29362;SDS011;16349;53.672;10.014;2022-12-18T14:13:58;13.83;;;7.97;;
29362;SDS011;16349;53.672;10.014;2022-12-18T14:16:25;19.40;;;9.77;;
29362;SDS011;16349;53.672;10.014;2022-12-18T14:18:54;17.90;;;8.83;;
29362;SDS011;16349;53.672;10.014;2022-12-18T14:21:25;18.37;;;8.90;;
29362;SDS011;16349;53.672;10.014;2022-12-18T14:24:04;16.87;;;8.47;;
29362;SDS011;16349;53.672;10.014;2022-12-18T14:26:38;17.70;;;8.37;;
29362;SDS011;16349;53.672;10.014;2022-12-18T14:29:17;15.23;;;8.53;;
29362;SDS011;16349;53.672;10.014;2022-12-18T14:32:12;20.77;;;9.70;;
29362;SDS011;16349;53.672;10.014;2022-12-18T14:34:42;16.43;;;9.07;;
29362;SDS011;16349;53.672;10.014;2022-12-18T14:37:09;17.10;;;8.57;;
29362;SDS011;16349;53.672;10.014;2022-12-18T14:39:38;19.13;;;10.30;;
29362;SDS011;16349;53.672;10.014;2022-12-18T14:42:05;20.60;;;13.40;;
29362;SDS011;16349;53.672;10.014;2022-12-18T14:44:36;20.80;;;12.98;;
29362;SDS011;16349;53.672;10.014;2022-12-18T14:47:03;22.23;;;11.63;;
29362;SDS011;16349;53.672;10.014;2022-12-18T14:49:30;20.70;;;9.90;;
29362;SDS011;16349;53.672;10.014;2022-12-18T14:52:02;22.97;;;10.80;;
29362;SDS011;16349;53.672;10.014;2022-12-18T14:54:31;21.53;;;9.13;;
29362;SDS011;16349;53.672;10.014;2022-12-18T14:57:02;21.60;;;9.90;;
29362;SDS011;16349;53.672;10.014;2022-12-18T14:59:30;17.70;;;10.73;;